createdAt,value
2019-02-05T00:01:29.314Z,13.15
2019-02-05T00:03:59.485Z,13.28
2019-02-05T00:06:29.653Z,13.19
2019-02-05T00:08:59.483Z,13.21
2019-02-05T00:11:29.738Z,13.32
2019-02-05T00:14:00.085Z,13.36
2019-02-05T00:16:30.507Z,13.23
2019-02-05T00:19:00.813Z,13.18
2019-02-05T00:21:30.933Z,13.22
2019-02-05T00:24:00.689Z,13.22
2019-02-05T00:26:30.231Z,13.18
2019-02-05T00:29:00.055Z,13.16
2019-02-05T00:31:29.653Z,13.15
2019-02-05T00:33:59.044Z,13.20
2019-02-05T00:36:28.152Z,13.37
2019-02-05T00:38:57.697Z,13.36
2019-02-05T00:41:27.081Z,13.23
2019-02-05T00:43:56.124Z,13.17
2019-02-05T00:46:27.991Z,13.19
2019-02-05T00:48:57.935Z,13.14
2019-02-05T00:51:28.055Z,13.02
2019-02-05T00:53:58.123Z,13.00
2019-02-05T00:56:27.485Z,12.89
2019-02-05T00:58:57.113Z,12.87
2019-02-05T01:01:27.234Z,12.96
2019-02-05T01:03:57.518Z,13.06
2019-02-05T01:06:27.126Z,13.14
2019-02-05T01:08:56.733Z,13.23
2019-02-05T01:11:26.878Z,13.38
2019-02-05T01:13:56.993Z,13.56
2019-02-05T01:16:27.235Z,13.60
2019-02-05T01:18:57.140Z,13.65
2019-02-05T01:21:27.137Z,13.59
2019-02-05T01:23:57.025Z,13.73
2019-02-05T01:26:29.460Z,13.90
2019-02-05T01:28:57.018Z,14.09
2019-02-05T01:31:26.882Z,14.25
2019-02-05T01:33:56.712Z,14.40
2019-02-05T01:36:26.932Z,14.66
2019-02-05T01:38:56.857Z,14.93
2019-02-05T01:41:26.470Z,15.13
2019-02-05T01:43:55.561Z,15.19
2019-02-05T01:46:24.640Z,15.34
2019-02-05T01:48:54.051Z,15.52
2019-02-05T01:51:23.758Z,15.61
2019-02-05T01:53:52.993Z,15.78
2019-02-05T01:56:22.656Z,16.12
2019-02-05T01:58:52.147Z,16.45
2019-02-05T02:01:21.511Z,16.58
2019-02-05T02:03:52.112Z,16.73
2019-02-05T02:06:21.534Z,17.01
2019-02-05T02:08:50.815Z,17.20
2019-02-05T02:11:19.972Z,17.47
2019-02-05T02:13:49.162Z,17.91
2019-02-05T02:16:18.953Z,18.38
2019-02-05T02:18:48.802Z,18.88
2019-02-05T02:21:17.932Z,19.38
2019-02-05T02:23:47.639Z,19.83
2019-02-05T02:26:16.645Z,20.31
2019-02-05T02:28:46.202Z,20.69
2019-02-05T02:31:15.724Z,20.99
2019-02-05T02:33:45.084Z,21.35
2019-02-05T02:36:14.143Z,21.56
2019-02-05T02:38:43.195Z,21.90
2019-02-05T02:41:12.732Z,22.09
2019-02-05T02:43:42.768Z,22.39
2019-02-05T02:46:12.376Z,22.64
2019-02-05T02:48:41.477Z,22.98
2019-02-05T02:51:10.856Z,23.41
2019-02-05T02:53:40.863Z,23.68
2019-02-05T02:56:10.987Z,23.99
2019-02-05T02:58:41.114Z,24.32
2019-02-05T03:01:11.248Z,24.31
2019-02-05T03:03:41.253Z,24.38
2019-02-05T03:06:10.768Z,24.51
2019-02-05T03:08:40.906Z,24.55
2019-02-05T03:11:10.893Z,24.65
2019-02-05T03:13:40.527Z,24.79
2019-02-05T03:16:09.827Z,24.83
2019-02-05T03:18:39.482Z,24.61
2019-02-05T03:21:09.176Z,24.81
2019-02-05T03:23:38.933Z,24.67
2019-02-05T03:26:08.099Z,24.61
2019-02-05T03:28:37.551Z,24.88
2019-02-05T03:31:07.211Z,25.09
2019-02-05T03:33:37.426Z,25.05
2019-02-05T03:36:06.861Z,25.11
2019-02-05T03:38:36.662Z,25.28
2019-02-05T03:41:06.575Z,25.24
2019-02-05T03:43:36.477Z,25.26
2019-02-05T03:46:06.268Z,25.57
2019-02-05T03:48:36.028Z,25.62
2019-02-05T03:51:06.002Z,25.69
2019-02-05T03:53:35.820Z,25.56
2019-02-05T03:56:05.203Z,25.36
2019-02-05T03:58:35.387Z,25.36
2019-02-05T04:01:05.972Z,25.57
2019-02-05T04:03:35.471Z,25.67
2019-02-05T04:06:05.183Z,25.47
2019-02-05T04:08:34.701Z,25.75
2019-02-05T04:11:04.455Z,25.82
2019-02-05T04:13:34.303Z,26.01
2019-02-05T04:16:04.443Z,26.13
2019-02-05T04:18:34.344Z,26.19
2019-02-05T04:21:03.861Z,26.42
2019-02-05T04:23:33.973Z,26.44
2019-02-05T04:26:04.107Z,26.46
2019-02-05T04:28:33.961Z,26.49
2019-02-05T04:31:04.341Z,26.43
2019-02-05T04:33:33.833Z,26.61
2019-02-05T04:36:03.310Z,26.96
2019-02-05T04:38:33.363Z,27.05
2019-02-05T04:41:02.662Z,26.99
2019-02-05T04:43:33.040Z,26.86
2019-02-05T04:46:02.705Z,27.02
2019-02-05T04:48:32.930Z,27.42
2019-02-05T04:51:03.073Z,27.22
2019-02-05T04:53:32.963Z,27.31
2019-02-05T04:56:03.100Z,27.59
2019-02-05T04:58:33.073Z,27.73
2019-02-05T05:01:02.995Z,27.63
2019-02-05T05:03:33.849Z,27.56
2019-02-05T05:06:02.875Z,27.92
2019-02-05T05:08:32.745Z,27.92
2019-02-05T05:11:02.636Z,27.98
2019-02-05T05:13:32.873Z,27.98
2019-02-05T05:16:05.481Z,28.08
2019-02-05T05:18:34.800Z,27.99
2019-02-05T05:21:04.241Z,28.17
2019-02-05T05:23:33.791Z,28.27
2019-02-05T05:26:03.460Z,28.39
2019-02-05T05:28:33.273Z,28.61
2019-02-05T05:31:03.263Z,28.53
2019-02-05T05:33:33.215Z,28.73
2019-02-05T05:36:02.546Z,28.33
2019-02-05T05:38:32.127Z,28.30
2019-02-05T05:41:01.603Z,28.32
2019-02-05T05:43:31.093Z,28.41
2019-02-05T05:46:00.814Z,28.50
2019-02-05T05:48:30.759Z,28.88
2019-02-05T05:51:00.566Z,28.57
2019-02-05T05:53:30.893Z,28.84
2019-02-05T05:56:00.915Z,28.55
2019-02-05T05:58:31.843Z,28.59
2019-02-05T06:01:02.772Z,28.84
2019-02-05T06:03:32.588Z,28.46
2019-02-05T06:06:02.308Z,28.99
2019-02-05T06:08:32.107Z,29.15
2019-02-05T06:11:01.930Z,29.20
2019-02-05T06:13:31.941Z,29.18
2019-02-05T06:16:01.653Z,29.32
2019-02-05T06:18:31.377Z,29.58
2019-02-05T06:21:01.510Z,29.59
2019-02-05T06:23:31.601Z,29.87
2019-02-05T06:26:01.400Z,29.73
2019-02-05T06:28:34.818Z,29.64
2019-02-05T06:31:01.875Z,29.50
2019-02-05T06:33:31.579Z,29.60
2019-02-05T06:36:01.391Z,29.39
2019-02-05T06:38:31.188Z,29.61
2019-02-05T06:41:00.499Z,29.71
2019-02-05T06:43:31.011Z,29.57
2019-02-05T06:46:00.553Z,29.76
2019-02-05T06:48:30.122Z,29.55
2019-02-05T06:50:59.898Z,29.67
2019-02-05T06:53:29.959Z,29.45
2019-02-05T06:56:00.168Z,29.09
2019-02-05T06:58:29.288Z,28.95
2019-02-05T07:00:59.600Z,29.26
2019-02-05T07:03:29.517Z,29.14
2019-02-05T07:05:59.541Z,29.35
2019-02-05T07:08:29.243Z,29.47
2019-02-05T07:10:58.767Z,29.49
2019-02-05T07:13:28.338Z,29.76
2019-02-05T07:15:58.370Z,29.86
2019-02-05T07:18:27.870Z,29.83
2019-02-05T07:20:57.300Z,29.45
2019-02-05T07:23:26.902Z,29.71
2019-02-05T07:25:57.140Z,29.82
2019-02-05T07:28:26.659Z,29.62
2019-02-05T07:30:56.523Z,29.90
2019-02-05T07:33:26.445Z,29.96
2019-02-05T07:35:56.147Z,30.16
2019-02-05T07:38:25.877Z,29.88
2019-02-05T07:40:55.551Z,29.91
2019-02-05T07:43:25.497Z,29.93
2019-02-05T07:45:55.204Z,30.12
2019-02-05T07:48:24.741Z,30.06
2019-02-05T07:50:54.604Z,30.14
2019-02-05T07:53:25.154Z,30.23
2019-02-05T07:55:54.868Z,29.78
2019-02-05T07:58:24.672Z,29.98
2019-02-05T08:00:54.877Z,29.76
2019-02-05T08:03:24.485Z,29.60
2019-02-05T08:05:54.617Z,29.75
2019-02-05T08:08:24.202Z,29.80
2019-02-05T08:10:54.046Z,29.50
2019-02-05T08:13:23.963Z,29.36
2019-02-05T08:15:53.641Z,29.63
2019-02-05T08:18:23.158Z,29.89
2019-02-05T08:20:52.971Z,29.88
2019-02-05T08:23:22.895Z,30.03
2019-02-05T08:25:53.107Z,30.13
2019-02-05T08:28:22.536Z,29.83
2019-02-05T08:30:52.429Z,29.81
2019-02-05T08:33:21.827Z,30.00
2019-02-05T08:35:51.712Z,30.10
2019-02-05T08:38:21.867Z,30.05
2019-02-05T08:40:51.821Z,30.03
2019-02-05T08:43:21.188Z,29.85
2019-02-05T08:45:56.642Z,29.43
2019-02-05T08:48:21.293Z,29.42
2019-02-05T08:50:52.311Z,29.62
2019-02-05T08:53:22.384Z,29.64
2019-02-05T08:55:52.167Z,29.55
2019-02-05T08:58:30.570Z,29.58
2019-02-05T09:00:52.419Z,29.59
2019-02-05T09:03:22.243Z,29.50
2019-02-05T09:05:52.243Z,29.50
2019-02-05T09:08:21.960Z,29.53
2019-02-05T09:10:52.287Z,29.36
2019-02-05T09:13:21.953Z,29.40
2019-02-05T09:15:51.514Z,29.61
2019-02-05T09:18:21.525Z,29.61
2019-02-05T09:20:51.908Z,29.36
2019-02-05T09:23:21.436Z,29.35
2019-02-05T09:25:51.737Z,29.37
2019-02-05T09:28:21.899Z,29.32
2019-02-05T09:30:53.080Z,29.19
2019-02-05T09:33:23.140Z,29.11
2019-02-05T09:35:53.287Z,29.16
2019-02-05T09:38:23.314Z,28.86
2019-02-05T09:40:53.329Z,28.69
2019-02-05T09:43:23.085Z,28.65
2019-02-05T09:45:52.686Z,28.55
2019-02-05T09:48:22.838Z,28.45
2019-02-05T09:50:52.217Z,28.46
2019-02-05T09:53:21.965Z,28.51
2019-02-05T09:55:51.983Z,28.65
2019-02-05T09:58:22.013Z,28.56
2019-02-05T10:00:52.113Z,28.65
2019-02-05T10:03:21.921Z,28.52
2019-02-05T10:05:51.122Z,28.38
2019-02-05T10:08:20.713Z,28.32
2019-02-05T10:10:50.836Z,28.23
2019-02-05T10:13:20.675Z,28.27
2019-02-05T10:15:51.275Z,28.21
2019-02-05T10:18:21.304Z,28.23
2019-02-05T10:20:51.240Z,28.29
2019-02-05T10:23:20.905Z,28.28
2019-02-05T10:25:50.375Z,28.38
2019-02-05T10:28:20.906Z,28.21
2019-02-05T10:30:50.809Z,28.25
2019-02-05T10:33:20.523Z,28.17
2019-02-05T10:35:50.657Z,28.08
2019-02-05T10:38:20.220Z,28.12
2019-02-05T10:40:50.535Z,28.11
2019-02-05T10:43:20.340Z,28.03
2019-02-05T10:45:50.161Z,27.97
2019-02-05T10:48:20.504Z,27.79
2019-02-05T10:50:50.532Z,27.80
2019-02-05T10:53:20.851Z,27.60
2019-02-05T10:55:50.544Z,27.58
2019-02-05T10:58:21.065Z,27.54
2019-02-05T11:00:51.196Z,27.55
2019-02-05T11:03:21.592Z,27.58
2019-02-05T11:05:51.323Z,27.54
2019-02-05T11:08:21.706Z,27.50
2019-02-05T11:10:51.773Z,27.25
2019-02-05T11:13:21.229Z,27.01
2019-02-05T11:15:51.498Z,26.82
2019-02-05T11:18:21.701Z,26.60
2019-02-05T11:20:52.107Z,26.36
2019-02-05T11:23:22.169Z,26.15
2019-02-05T11:25:52.254Z,25.87
2019-02-05T11:28:22.446Z,25.73
2019-02-05T11:30:53.168Z,25.58
2019-02-05T11:33:22.860Z,25.36
2019-02-05T11:35:52.978Z,25.24
2019-02-05T11:38:23.400Z,25.08
2019-02-05T11:40:53.415Z,24.94
2019-02-05T11:43:23.483Z,24.80
2019-02-05T11:45:53.382Z,24.66
2019-02-05T11:48:23.582Z,24.48
2019-02-05T11:50:53.613Z,24.32
2019-02-05T11:53:23.786Z,24.14
2019-02-05T11:55:53.636Z,23.98
2019-02-05T11:58:23.098Z,23.78
2019-02-05T12:00:53.611Z,23.57
2019-02-05T12:03:24.107Z,23.39
2019-02-05T12:05:54.185Z,23.23
2019-02-05T12:08:24.704Z,23.00
2019-02-05T12:10:54.655Z,22.85
2019-02-05T12:13:24.221Z,22.74
2019-02-05T12:15:54.384Z,22.61
2019-02-05T12:18:24.327Z,22.45
2019-02-05T12:20:54.096Z,22.31
2019-02-05T12:23:23.785Z,22.15
2019-02-05T12:25:54.521Z,22.05
2019-02-05T12:28:24.020Z,21.94
2019-02-05T12:30:53.175Z,21.86
2019-02-05T12:33:23.145Z,21.76
2019-02-05T12:35:52.886Z,21.65
2019-02-05T12:38:22.257Z,21.55
2019-02-05T12:40:52.102Z,21.45
2019-02-05T12:43:22.498Z,21.42
2019-02-05T12:45:52.302Z,21.45
2019-02-05T12:48:22.458Z,21.21
2019-02-05T12:50:52.139Z,20.92
2019-02-05T12:53:21.467Z,20.84
2019-02-05T12:55:51.093Z,20.75
2019-02-05T12:58:20.834Z,20.61
2019-02-05T13:00:58.240Z,20.50
2019-02-05T13:03:20.895Z,20.58
2019-02-05T13:05:50.612Z,20.49
2019-02-05T13:08:20.322Z,20.38
2019-02-05T13:10:50.340Z,20.31
2019-02-05T13:13:20.059Z,20.27
2019-02-05T13:15:50.018Z,20.15
2019-02-05T13:18:19.452Z,20.16
2019-02-05T13:20:48.995Z,20.12
2019-02-05T13:23:18.977Z,20.12
2019-02-05T13:25:48.421Z,20.05
2019-02-05T13:28:18.182Z,19.98
2019-02-05T13:30:47.626Z,19.85
2019-02-05T13:33:17.512Z,19.78
2019-02-05T13:35:47.558Z,19.63
2019-02-05T13:38:17.542Z,19.56
2019-02-05T13:40:46.979Z,19.51
2019-02-05T13:43:19.180Z,19.44
2019-02-05T13:45:50.536Z,19.38
2019-02-05T13:48:20.515Z,19.37
2019-02-05T13:50:50.619Z,19.32
2019-02-05T13:53:20.773Z,19.27
2019-02-05T13:55:50.775Z,19.21
2019-02-05T13:58:21.388Z,19.17
2019-02-05T14:00:51.348Z,19.13
2019-02-05T14:03:21.224Z,19.11
2019-02-05T14:05:50.812Z,19.03
2019-02-05T14:08:20.530Z,18.97
2019-02-05T14:10:49.616Z,18.93
2019-02-05T14:13:19.941Z,18.89
2019-02-05T14:15:50.096Z,18.77
2019-02-05T14:18:22.646Z,18.70
2019-02-05T14:20:51.369Z,18.66
2019-02-05T14:23:21.659Z,18.61
2019-02-05T14:25:51.665Z,18.56
2019-02-05T14:28:21.180Z,18.52
2019-02-05T14:30:51.624Z,18.55
2019-02-05T14:33:21.853Z,18.56
2019-02-05T14:35:51.225Z,18.62
2019-02-05T14:38:21.252Z,18.47
2019-02-05T14:40:50.658Z,18.28
2019-02-05T14:43:19.938Z,18.28
2019-02-05T14:45:49.139Z,18.34
2019-02-05T14:48:21.541Z,18.15
2019-02-05T14:50:51.705Z,17.97
2019-02-05T14:53:21.266Z,17.84
2019-02-05T14:55:58.333Z,17.84
2019-02-05T14:58:32.340Z,17.93
2019-02-05T15:01:03.358Z,17.94
2019-02-05T15:03:33.707Z,17.84
2019-02-05T15:06:07.658Z,17.71
2019-02-05T15:08:38.216Z,17.57
2019-02-05T15:11:07.890Z,17.49
2019-02-05T15:13:37.090Z,17.52
2019-02-05T15:16:07.562Z,17.55
2019-02-05T15:18:39.975Z,17.53
2019-02-05T15:21:09.402Z,17.47
2019-02-05T15:23:43.655Z,17.47
2019-02-05T15:26:17.051Z,17.48
2019-02-05T15:28:47.254Z,17.50
2019-02-05T15:31:16.576Z,17.45
2019-02-05T15:33:46.377Z,17.43
2019-02-05T15:36:16.681Z,17.37
2019-02-05T15:38:46.776Z,17.27
2019-02-05T15:41:18.860Z,17.36
2019-02-05T15:43:49.055Z,17.41
2019-02-05T15:46:20.139Z,17.33
2019-02-05T15:48:49.739Z,17.27
2019-02-05T15:51:21.527Z,17.29
2019-02-05T15:53:54.542Z,17.25
2019-02-05T15:56:25.188Z,17.20
2019-02-05T15:58:57.132Z,17.13
2019-02-05T16:01:27.174Z,17.09
2019-02-05T16:03:58.650Z,17.00
2019-02-05T16:06:28.772Z,16.98
2019-02-05T16:09:00.467Z,17.00
2019-02-05T16:11:31.973Z,16.99
2019-02-05T16:14:01.541Z,16.96
2019-02-05T16:16:34.778Z,16.97
2019-02-05T16:19:11.122Z,16.95
2019-02-05T16:21:42.318Z,16.91
2019-02-05T16:24:16.180Z,16.88
2019-02-05T16:26:52.301Z,16.81
2019-02-05T16:29:27.217Z,16.72
2019-02-05T16:31:57.820Z,16.60
2019-02-05T16:34:27.311Z,16.53
2019-02-05T16:36:58.047Z,16.52
2019-02-05T16:39:31.764Z,16.52
2019-02-05T16:42:06.264Z,16.47
2019-02-05T16:44:42.184Z,16.33
2019-02-05T16:47:18.886Z,16.21
2019-02-05T16:49:53.668Z,16.16
2019-02-05T16:52:23.656Z,15.97
2019-02-05T16:54:54.578Z,15.97
2019-02-05T16:57:25.382Z,15.97
2019-02-05T16:59:56.088Z,15.99
2019-02-05T17:02:31.095Z,15.95
2019-02-05T17:05:03.334Z,15.97
2019-02-05T17:07:32.842Z,15.95
2019-02-05T17:10:02.863Z,15.87
2019-02-05T17:12:33.701Z,15.88
2019-02-05T17:15:05.204Z,15.87
2019-02-05T17:17:38.978Z,15.86
2019-02-05T17:20:11.572Z,15.84
2019-02-05T17:22:45.143Z,15.78
2019-02-05T17:25:16.520Z,15.73
2019-02-05T17:27:46.252Z,15.55
2019-02-05T17:30:16.334Z,15.46
2019-02-05T17:32:45.684Z,15.55
2019-02-05T17:35:15.127Z,15.60
2019-02-05T17:37:44.339Z,15.64
2019-02-05T17:40:13.575Z,15.67
2019-02-05T17:42:43.569Z,15.69
2019-02-05T17:45:12.785Z,15.72
2019-02-05T17:47:41.889Z,15.72
2019-02-05T17:50:13.500Z,15.72
2019-02-05T17:52:44.898Z,15.70
2019-02-05T17:55:15.378Z,15.65
2019-02-05T17:57:47.216Z,15.60
2019-02-05T18:00:18.381Z,15.63
2019-02-05T18:02:51.575Z,15.60
2019-02-05T18:05:19.828Z,15.60
2019-02-05T18:07:50.056Z,15.58
2019-02-05T18:10:20.247Z,15.52
2019-02-05T18:12:50.212Z,15.47
2019-02-05T18:15:20.917Z,15.48
2019-02-05T18:17:51.456Z,15.46
2019-02-05T18:20:21.577Z,15.25
2019-02-05T18:22:52.261Z,15.28
2019-02-05T18:25:21.823Z,15.27
2019-02-05T18:27:52.432Z,15.28
2019-02-05T18:30:24.127Z,15.25
2019-02-05T18:33:03.360Z,15.22
2019-02-05T18:35:25.263Z,15.18
2019-02-05T18:37:55.744Z,15.10
2019-02-05T18:40:29.937Z,15.09
2019-02-05T18:43:01.819Z,15.10
2019-02-05T18:45:32.964Z,15.09
2019-02-05T18:48:04.086Z,15.04
2019-02-05T18:50:35.056Z,15.05
2019-02-05T19:00:42.575Z,15.01
2019-02-05T19:03:16.299Z,14.97
2019-02-05T19:05:42.342Z,14.94
2019-02-05T19:08:12.240Z,14.90
2019-02-05T19:10:42.056Z,14.88
2019-02-05T19:13:14.497Z,14.89
2019-02-05T19:15:47.181Z,14.93
2019-02-05T19:18:17.259Z,14.94
2019-02-05T19:20:46.450Z,14.91
2019-02-05T19:23:16.488Z,14.90
2019-02-05T19:25:46.539Z,14.85
2019-02-05T19:28:16.245Z,14.84
2019-02-05T19:30:46.099Z,14.86
2019-02-05T19:33:26.405Z,14.83
2019-02-05T19:35:46.660Z,14.85
2019-02-05T19:38:15.950Z,14.84
2019-02-05T19:40:56.814Z,14.84
2019-02-05T19:43:16.815Z,14.78
2019-02-05T19:45:46.230Z,14.71
2019-02-05T19:48:16.400Z,14.69
2019-02-05T19:50:46.649Z,14.72
2019-02-05T19:53:16.584Z,14.71
2019-02-05T19:55:46.286Z,14.70
2019-02-05T19:58:16.419Z,14.66
2019-02-05T20:00:46.745Z,14.65
2019-02-05T20:03:16.857Z,14.69
2019-02-05T20:05:46.852Z,14.65
2019-02-05T20:08:16.656Z,14.62
2019-02-05T20:10:46.566Z,14.57
2019-02-05T20:13:16.628Z,14.57
2019-02-05T20:15:46.522Z,14.60
2019-02-05T20:18:16.951Z,14.59
2019-02-05T20:20:46.453Z,14.55
2019-02-05T20:23:16.467Z,14.51
2019-02-05T20:25:46.375Z,14.50
2019-02-05T20:28:15.693Z,14.50
2019-02-05T20:30:45.616Z,14.49
2019-02-05T20:33:15.815Z,14.46
2019-02-05T20:35:46.485Z,14.45
2019-02-05T20:38:16.573Z,14.46
2019-02-05T20:40:46.623Z,14.42
2019-02-05T20:43:17.041Z,14.36
2019-02-05T20:45:47.015Z,14.30
2019-02-05T20:48:17.251Z,14.30
2019-02-05T20:50:47.070Z,14.26
2019-02-05T20:53:16.778Z,14.28
2019-02-05T20:55:46.571Z,14.29
2019-02-05T20:58:16.009Z,14.23
2019-02-05T21:00:46.416Z,14.21
2019-02-05T21:03:16.126Z,14.20
2019-02-05T21:05:46.535Z,14.15
2019-02-05T21:08:16.061Z,14.13
2019-02-05T21:10:46.375Z,14.12
2019-02-05T21:13:16.402Z,14.11
2019-02-05T21:15:45.570Z,14.06
2019-02-05T21:18:17.398Z,13.98
2019-02-05T21:20:45.386Z,13.96
2019-02-05T21:23:15.447Z,13.95
2019-02-05T21:25:45.852Z,13.95
2019-02-05T21:28:15.942Z,13.94
2019-02-05T21:30:45.787Z,13.92
2019-02-05T21:33:18.830Z,13.92
2019-02-05T21:35:46.360Z,13.93
2019-02-05T21:38:15.930Z,13.90
2019-02-05T21:40:46.051Z,13.92
2019-02-05T21:43:16.087Z,13.98
2019-02-05T21:45:46.420Z,14.02
2019-02-05T21:48:16.645Z,14.11
2019-02-05T21:50:46.447Z,14.09
2019-02-05T21:53:16.851Z,14.10
2019-02-05T21:55:46.852Z,13.98
2019-02-05T21:58:16.966Z,13.88
2019-02-05T22:00:47.344Z,13.77
2019-02-05T22:03:17.754Z,13.69
2019-02-05T22:05:47.988Z,13.81
2019-02-05T22:08:18.189Z,13.80
2019-02-05T22:10:48.331Z,13.84
2019-02-05T22:13:17.765Z,13.77
2019-02-05T22:15:47.821Z,13.75
2019-02-05T22:18:16.903Z,13.77
2019-02-05T22:20:46.975Z,13.74
2019-02-05T22:23:17.486Z,13.73
2019-02-05T22:25:47.507Z,13.68
2019-02-05T22:28:20.453Z,13.61
2019-02-05T22:30:48.461Z,13.62
2019-02-05T22:33:18.796Z,13.72
2019-02-05T22:35:48.784Z,13.68
2019-02-05T22:38:18.739Z,13.66
2019-02-05T22:40:48.900Z,13.66
2019-02-05T22:43:18.551Z,13.60
2019-02-05T22:45:48.095Z,13.54
2019-02-05T22:48:18.167Z,13.57
2019-02-05T22:50:48.054Z,13.65
2019-02-05T22:53:17.258Z,13.65
2019-02-05T22:55:46.677Z,13.59
2019-02-05T22:58:16.471Z,13.66
2019-02-05T23:00:46.492Z,13.73
2019-02-05T23:03:15.624Z,13.64
2019-02-05T23:05:45.164Z,13.66
2019-02-05T23:08:14.693Z,13.63
2019-02-05T23:10:43.904Z,13.56
2019-02-05T23:13:13.698Z,13.51
2019-02-05T23:15:43.618Z,13.53
2019-02-05T23:18:13.235Z,13.60
2019-02-05T23:20:42.295Z,13.59
2019-02-05T23:23:11.345Z,13.53
2019-02-05T23:25:40.344Z,13.58
2019-02-05T23:28:09.507Z,13.62
2019-02-05T23:30:38.508Z,13.50
2019-02-05T23:33:07.771Z,13.57
2019-02-05T23:35:36.919Z,13.64
2019-02-05T23:38:05.975Z,13.62
2019-02-05T23:40:34.976Z,13.53
2019-02-05T23:43:04.180Z,13.51
2019-02-05T23:45:33.188Z,13.54
2019-02-05T23:48:02.206Z,13.55
2019-02-05T23:50:31.748Z,13.51
2019-02-05T23:53:01.423Z,13.43
2019-02-05T23:55:30.990Z,13.40
2019-02-05T23:58:00.895Z,13.41
